Time;durP1;ratioP1;P1;durP2;ratioP2;P2;SDS_P1;SDS_P2;PMS_P1;PMS_P2;Temp;Humidity;BMP_temperature;BMP_pressure;BME280_temperature;BME280_humidity;BME280_pressure;Samples;Min_cycle;Max_cycle;Signal;HPM_P1;HPM_P2
2022/07/05 00:01:14;;;;;;;4.07;3.50;;;;;;;;;;4995412;28;20104;-73
2022/07/05 00:03:40;;;;;;;4.32;3.70;;;;;;;;;;4994712;28;20039;-73
2022/07/05 00:06:06;;;;;;;4.60;3.70;;;;;;;;;;4995560;28;20082;-73
2022/07/05 00:08:33;;;;;;;4.43;3.72;;;;;;;;;;4994979;28;20046;-73
2022/07/05 00:10:59;;;;;;;4.13;3.60;;;;;;;;;;4994106;28;20038;-73
2022/07/05 00:13:25;;;;;;;5.60;3.72;;;;;;;;;;4994361;28;20050;-73
2022/07/05 00:15:52;;;;;;;4.93;3.40;;;;;;;;;;4989527;28;20053;-74
2022/07/05 00:18:18;;;;;;;8.35;4.47;;;;;;;;;;4994726;28;20085;-73
2022/07/05 00:20:45;;;;;;;4.18;3.70;;;;;;;;;;4994036;28;20216;-73
2022/07/05 00:23:11;;;;;;;5.70;4.10;;;;;;;;;;4995098;28;20043;-73
2022/07/05 00:25:37;;;;;;;6.40;4.22;;;;;;;;;;4977828;28;20050;-73
2022/07/05 00:28:04;;;;;;;4.85;3.70;;;;;;;;;;4992994;28;20405;-74
2022/07/05 00:30:30;;;;;;;6.10;4.20;;;;;;;;;;4993402;28;20112;-72
2022/07/05 00:32:56;;;;;;;5.45;3.75;;;;;;;;;;4992727;28;20050;-72
2022/07/05 00:35:22;;;;;;;5.40;4.13;;;;;;;;;;4993512;28;20141;-73
2022/07/05 00:37:48;;;;;;;5.13;4.10;;;;;;;;;;4994446;28;20045;-73
2022/07/05 00:40:14;;;;;;;5.25;4.20;;;;;;;;;;4995675;28;20100;-73
2022/07/05 00:42:40;;;;;;;5.80;4.10;;;;;;;;;;4991983;28;20121;-73
2022/07/05 00:47:35;;;;;;;5.30;3.92;;;;;;;;;;5054817;28;20046;-70
2022/07/05 00:50:01;;;;;;;5.88;4.30;;;;;;;;;;5057864;28;20044;-71
2022/07/05 00:52:27;;;;;;;6.10;4.30;;;;;;;;;;5057557;28;20025;-70
2022/07/05 00:54:54;;;;;;;4.78;4.10;;;;;;;;;;5058202;28;20080;-71
2022/07/05 00:57:21;;;;;;;4.55;4.15;;;;;;;;;;5057643;28;20033;-70
2022/07/05 00:59:47;;;;;;;5.82;4.55;;;;;;;;;;5040799;28;20041;-70
2022/07/05 01:02:13;;;;;;;4.93;4.20;;;;;;;;;;5057240;28;20036;-71
2022/07/05 01:04:39;;;;;;;6.97;4.40;;;;;;;;;;5058025;28;20091;-71
2022/07/05 01:07:05;;;;;;;6.18;3.90;;;;;;;;;;5056599;28;20067;-72
2022/07/05 01:09:35;;;;;;;5.43;3.42;;;;;;;;;;5057946;28;20034;-71
2022/07/05 01:12:01;;;;;;;4.55;3.90;;;;;;;;;;5057161;28;20054;-72
2022/07/05 01:14:27;;;;;;;5.15;4.00;;;;;;;;;;5056390;28;20026;-70
2022/07/05 01:16:56;;;;;;;6.53;4.05;;;;;;;;;;5039624;28;20052;-71
2022/07/05 01:19:22;;;;;;;6.35;4.00;;;;;;;;;;5057519;28;20022;-71
2022/07/05 01:21:49;;;;;;;4.63;4.10;;;;;;;;;;5056841;28;20056;-70
2022/07/05 01:24:16;;;;;;;5.03;3.85;;;;;;;;;;5057289;28;20040;-70
2022/07/05 01:26:44;;;;;;;7.43;4.18;;;;;;;;;;5057203;28;20037;-72
2022/07/05 01:29:10;;;;;;;5.68;3.92;;;;;;;;;;5037308;28;20038;-70
2022/07/05 01:31:40;;;;;;;5.60;3.90;;;;;;;;;;5045558;28;20028;-72
2022/07/05 01:34:06;;;;;;;6.43;4.20;;;;;;;;;;5056718;28;20053;-71
2022/07/05 01:36:33;;;;;;;4.93;4.47;;;;;;;;;;5055443;28;20034;-71
2022/07/05 01:38:59;;;;;;;6.70;4.63;;;;;;;;;;5056675;28;20105;-70
2022/07/05 01:41:26;;;;;;;6.32;4.30;;;;;;;;;;5056929;28;20026;-71
2022/07/05 01:43:52;;;;;;;6.07;4.18;;;;;;;;;;5056843;28;20045;-70
2022/07/05 01:46:22;;;;;;;5.55;4.00;;;;;;;;;;5056304;28;20061;-71
2022/07/05 01:48:49;;;;;;;6.30;4.18;;;;;;;;;;5040099;28;20049;-70
2022/07/05 01:51:26;;;;;;;5.30;4.25;;;;;;;;;;5055891;28;20026;-70
2022/07/05 01:53:53;;;;;;;4.60;4.20;;;;;;;;;;5056979;28;20025;-71
2022/07/05 01:56:19;;;;;;;5.10;4.03;;;;;;;;;;5056284;28;20055;-71
2022/07/05 01:58:45;;;;;;;5.00;4.40;;;;;;;;;;5055183;28;20032;-71
2022/07/05 02:01:12;;;;;;;5.22;4.10;;;;;;;;;;5056900;28;20029;-70
2022/07/05 02:03:39;;;;;;;5.30;4.43;;;;;;;;;;5055763;28;20051;-70
2022/07/05 02:06:10;;;;;;;5.30;4.03;;;;;;;;;;5054196;28;20037;-71
2022/07/05 02:08:36;;;;;;;8.00;4.30;;;;;;;;;;5056851;28;20038;-71
2022/07/05 02:11:03;;;;;;;4.65;3.80;;;;;;;;;;5057091;28;20045;-70
2022/07/05 02:13:29;;;;;;;5.30;3.72;;;;;;;;;;5038907;28;20049;-70
2022/07/05 02:15:55;;;;;;;5.63;3.83;;;;;;;;;;5056334;28;20045;-70
2022/07/05 02:18:21;;;;;;;5.13;3.80;;;;;;;;;;5056553;28;20038;-71
2022/07/05 02:20:48;;;;;;;6.18;4.03;;;;;;;;;;5056201;28;20564;-72
2022/07/05 02:23:14;;;;;;;6.65;3.58;;;;;;;;;;5055992;28;20041;-70
2022/07/05 02:25:40;;;;;;;5.38;3.80;;;;;;;;;;5058020;28;20037;-71
2022/07/05 02:28:06;;;;;;;5.38;3.78;;;;;;;;;;5059608;28;20054;-70
2022/07/05 02:30:32;;;;;;;4.93;4.07;;;;;;;;;;5059577;28;20038;-72
2022/07/05 02:32:58;;;;;;;5.47;4.30;;;;;;;;;;5060596;28;20041;-70
2022/07/05 02:35:24;;;;;;;6.57;4.03;;;;;;;;;;5058056;28;20111;-70
2022/07/05 02:37:53;;;;;;;5.32;4.18;;;;;;;;;;5060469;28;20059;-70
2022/07/05 02:40:19;;;;;;;4.30;3.80;;;;;;;;;;5060247;28;20025;-70
2022/07/05 02:42:45;;;;;;;6.30;3.95;;;;;;;;;;5059210;28;20025;-70
2022/07/05 02:45:11;;;;;;;4.72;3.85;;;;;;;;;;5059616;28;20041;-71
2022/07/05 02:47:37;;;;;;;6.57;3.80;;;;;;;;;;5059462;28;20052;-70
2022/07/05 02:50:08;;;;;;;5.57;4.03;;;;;;;;;;5059362;28;20038;-71
2022/07/05 02:52:34;;;;;;;4.65;3.72;;;;;;;;;;5059708;28;20072;-70
2022/07/05 02:55:04;;;;;;;4.85;3.95;;;;;;;;;;5043048;28;20083;-70
2022/07/05 02:57:30;;;;;;;4.63;3.92;;;;;;;;;;5059558;28;20026;-70
2022/07/05 02:59:56;;;;;;;5.75;3.50;;;;;;;;;;5058984;28;20068;-71
2022/07/05 03:02:23;;;;;;;4.40;3.50;;;;;;;;;;5059321;28;20031;-71
2022/07/05 03:04:49;;;;;;;5.93;3.60;;;;;;;;;;5057926;28;20037;-71
2022/07/05 03:07:15;;;;;;;7.18;3.47;;;;;;;;;;5059262;28;20021;-71
2022/07/05 03:09:41;;;;;;;5.50;3.42;;;;;;;;;;5058877;28;20040;-70
2022/07/05 03:12:08;;;;;;;6.70;3.70;;;;;;;;;;5058559;28;20049;-70
2022/07/05 03:14:34;;;;;;;4.53;3.35;;;;;;;;;;5058790;28;20040;-70
2022/07/05 03:17:00;;;;;;;5.40;4.18;;;;;;;;;;5041695;28;20073;-72
2022/07/05 03:19:26;;;;;;;4.18;3.42;;;;;;;;;;5058357;28;20048;-71
2022/07/05 03:21:52;;;;;;;4.30;3.58;;;;;;;;;;5058569;28;20049;-71
2022/07/05 03:24:18;;;;;;;4.10;3.50;;;;;;;;;;5058522;28;20056;-71
2022/07/05 03:26:44;;;;;;;5.45;3.40;;;;;;;;;;5057051;28;20037;-71
2022/07/05 03:29:10;;;;;;;3.35;3.05;;;;;;;;;;5058211;28;20167;-70
2022/07/05 03:31:36;;;;;;;5.65;3.60;;;;;;;;;;5059330;28;20060;-72
2022/07/05 03:34:02;;;;;;;4.43;3.35;;;;;;;;;;5059135;28;20105;-70
2022/07/05 03:36:28;;;;;;;5.20;3.42;;;;;;;;;;5057518;28;20033;-70
2022/07/05 03:38:54;;;;;;;8.77;3.30;;;;;;;;;;5059108;28;20044;-71
2022/07/05 03:41:20;;;;;;;6.03;3.55;;;;;;;;;;5057919;28;20029;-71
2022/07/05 03:43:46;;;;;;;8.07;3.80;;;;;;;;;;5059211;28;20037;-71
2022/07/05 03:46:12;;;;;;;6.18;3.40;;;;;;;;;;5057802;28;20060;-72
2022/07/05 03:48:39;;;;;;;4.78;3.10;;;;;;;;;;5059030;28;20053;-70
2022/07/05 03:51:05;;;;;;;4.97;3.30;;;;;;;;;;5058264;28;20061;-71
2022/07/05 03:53:31;;;;;;;8.23;4.07;;;;;;;;;;5059127;28;20045;-70
2022/07/05 03:55:57;;;;;;;8.00;3.60;;;;;;;;;;5058383;28;20081;-71
2022/07/05 03:58:23;;;;;;;6.82;3.60;;;;;;;;;;5058564;28;20046;-70
2022/07/05 04:00:49;;;;;;;5.70;3.60;;;;;;;;;;5058319;28;20492;-72
2022/07/05 04:03:15;;;;;;;5.72;3.42;;;;;;;;;;5058389;28;20067;-71
2022/07/05 04:05:41;;;;;;;6.35;4.10;;;;;;;;;;5056144;28;20033;-70
2022/07/05 04:08:07;;;;;;;7.13;3.78;;;;;;;;;;5059140;28;20052;-70
2022/07/05 04:10:33;;;;;;;6.35;3.70;;;;;;;;;;5058078;28;20022;-70
2022/07/05 04:12:59;;;;;;;6.60;3.65;;;;;;;;;;5058962;28;20180;-70
2022/07/05 04:15:25;;;;;;;4.25;3.35;;;;;;;;;;5058476;28;20028;-70
2022/07/05 04:17:56;;;;;;;4.25;3.28;;;;;;;;;;5058261;28;20064;-71
2022/07/05 04:20:24;;;;;;;4.63;3.20;;;;;;;;;;5058026;28;20037;-70
2022/07/05 04:22:50;;;;;;;5.30;3.50;;;;;;;;;;5057906;28;20121;-71
2022/07/05 04:25:16;;;;;;;3.65;3.20;;;;;;;;;;5057266;28;20079;-72
2022/07/05 04:27:43;;;;;;;5.65;3.33;;;;;;;;;;5058236;28;20022;-70
2022/07/05 04:30:09;;;;;;;4.88;3.10;;;;;;;;;;5057528;28;20083;-70
2022/07/05 04:32:36;;;;;;;5.28;3.42;;;;;;;;;;5058098;28;20029;-74
2022/07/05 04:35:02;;;;;;;4.45;3.15;;;;;;;;;;5057572;28;20053;-74
2022/07/05 04:37:28;;;;;;;5.68;3.40;;;;;;;;;;5058146;28;20048;-73
2022/07/05 04:39:54;;;;;;;4.57;3.30;;;;;;;;;;5057906;28;20025;-73
2022/07/05 04:42:20;;;;;;;4.10;3.38;;;;;;;;;;5056265;28;20056;-75
2022/07/05 04:44:47;;;;;;;6.78;3.53;;;;;;;;;;5056657;28;20101;-73
2022/07/05 04:47:13;;;;;;;5.40;3.22;;;;;;;;;;5057257;28;20049;-73
2022/07/05 04:49:39;;;;;;;4.25;3.10;;;;;;;;;;5056298;28;20049;-73
2022/07/05 04:52:05;;;;;;;4.25;3.13;;;;;;;;;;5057672;28;20049;-73
2022/07/05 04:54:31;;;;;;;6.13;3.20;;;;;;;;;;5057681;28;20045;-73
2022/07/05 04:56:57;;;;;;;5.00;3.10;;;;;;;;;;5056787;28;20050;-75
2022/07/05 04:59:23;;;;;;;6.63;2.83;;;;;;;;;;5056529;28;20041;-74
2022/07/05 05:01:49;;;;;;;7.28;2.95;;;;;;;;;;5057500;28;20155;-73
2022/07/05 05:04:15;;;;;;;7.10;2.95;;;;;;;;;;5054931;28;20049;-73
2022/07/05 05:06:41;;;;;;;5.65;2.75;;;;;;;;;;5056304;28;20128;-73
2022/07/05 05:09:07;;;;;;;5.20;2.60;;;;;;;;;;5054042;28;20045;-71
2022/07/05 05:11:33;;;;;;;5.05;2.58;;;;;;;;;;5053857;28;20052;-71
2022/07/05 05:14:02;;;;;;;5.75;2.42;;;;;;;;;;5053649;28;20072;-72
2022/07/05 05:16:28;;;;;;;4.38;2.47;;;;;;;;;;5053595;28;20033;-70
2022/07/05 05:18:54;;;;;;;4.80;2.15;;;;;;;;;;5055805;28;20053;-71
2022/07/05 05:21:20;;;;;;;7.85;2.13;;;;;;;;;;5055312;28;20523;-71
2022/07/05 05:23:46;;;;;;;3.15;2.13;;;;;;;;;;5054749;28;20026;-71
2022/07/05 05:26:12;;;;;;;4.30;2.20;;;;;;;;;;5052779;28;20068;-72
2022/07/05 05:28:38;;;;;;;6.68;2.60;;;;;;;;;;5054175;28;20139;-71
2022/07/05 05:31:05;;;;;;;5.05;2.33;;;;;;;;;;5052691;28;20098;-71
2022/07/05 05:33:31;;;;;;;5.00;2.03;;;;;;;;;;5055307;28;20128;-71
2022/07/05 05:35:57;;;;;;;4.63;1.83;;;;;;;;;;5053800;28;20045;-71
2022/07/05 05:38:23;;;;;;;4.05;2.22;;;;;;;;;;5053604;28;20041;-72
2022/07/05 05:40:49;;;;;;;10.45;2.65;;;;;;;;;;5053449;28;20037;-71
2022/07/05 05:43:15;;;;;;;8.23;2.17;;;;;;;;;;5043557;28;20045;-71
2022/07/05 05:45:41;;;;;;;4.85;2.40;;;;;;;;;;5034209;28;20061;-73
2022/07/05 05:48:08;;;;;;;7.10;2.47;;;;;;;;;;5054492;28;20047;-72
2022/07/05 05:50:35;;;;;;;4.40;2.20;;;;;;;;;;5051738;28;20411;-76
2022/07/05 05:53:01;;;;;;;5.13;2.22;;;;;;;;;;5053042;28;20075;-70
2022/07/05 05:55:28;;;;;;;5.15;2.50;;;;;;;;;;5053259;28;20044;-74
2022/07/05 05:57:54;;;;;;;5.82;2.60;;;;;;;;;;5054050;28;20045;-71
2022/07/05 06:00:21;;;;;;;6.32;2.88;;;;;;;;;;5054491;28;20036;-72
2022/07/05 06:02:49;;;;;;;4.80;2.03;;;;;;;;;;5061066;28;20029;-71
2022/07/05 06:05:15;;;;;;;7.85;2.55;;;;;;;;;;5061388;28;20046;-71
2022/07/05 06:07:45;;;;;;;5.32;2.13;;;;;;;;;;5060457;28;20041;-71
2022/07/05 06:10:11;;;;;;;3.25;1.80;;;;;;;;;;5060815;28;20060;-74
2022/07/05 06:12:37;;;;;;;6.15;2.15;;;;;;;;;;5059108;28;20105;-72
2022/07/05 06:15:03;;;;;;;5.70;2.00;;;;;;;;;;5060532;28;20018;-73
2022/07/05 06:17:29;;;;;;;7.93;2.20;;;;;;;;;;5059567;28;20065;-73
2022/07/05 06:19:55;;;;;;;5.45;2.35;;;;;;;;;;5061460;28;20056;-72
2022/07/05 06:22:24;;;;;;;4.85;2.28;;;;;;;;;;5061236;28;20060;-72
2022/07/05 06:24:50;;;;;;;6.72;2.33;;;;;;;;;;5060101;28;20045;-73
2022/07/05 06:27:16;;;;;;;4.90;2.38;;;;;;;;;;5057607;28;20053;-73
2022/07/05 06:29:42;;;;;;;6.35;2.13;;;;;;;;;;5039907;28;20046;-73
2022/07/05 06:32:08;;;;;;;9.23;2.40;;;;;;;;;;5049968;28;20081;-73
2022/07/05 06:34:34;;;;;;;7.80;2.10;;;;;;;;;;5060527;28;20119;-72
2022/07/05 06:37:00;;;;;;;8.18;2.00;;;;;;;;;;5060968;28;20036;-72
2022/07/05 06:39:26;;;;;;;5.22;2.25;;;;;;;;;;5060967;28;20025;-73
2022/07/05 06:41:52;;;;;;;4.63;2.20;;;;;;;;;;5061102;28;20032;-72
2022/07/05 06:44:18;;;;;;;8.63;2.42;;;;;;;;;;5060262;28;20021;-73
2022/07/05 06:46:44;;;;;;;6.40;2.50;;;;;;;;;;5059947;28;20044;-73
2022/07/05 06:49:10;;;;;;;6.78;1.92;;;;;;;;;;5060750;28;20033;-72
2022/07/05 06:51:36;;;;;;;5.38;2.05;;;;;;;;;;5060448;28;20052;-73
2022/07/05 06:54:03;;;;;;;5.70;1.92;;;;;;;;;;5060350;28;20022;-75
2022/07/05 06:56:29;;;;;;;7.30;2.10;;;;;;;;;;5058674;28;20029;-72
2022/07/05 06:58:55;;;;;;;5.82;2.15;;;;;;;;;;5040178;28;20033;-73
2022/07/05 07:01:21;;;;;;;5.60;2.05;;;;;;;;;;5059232;28;20040;-73
2022/07/05 07:03:47;;;;;;;5.25;2.00;;;;;;;;;;5060074;28;20029;-72
2022/07/05 07:06:13;;;;;;;6.47;2.30;;;;;;;;;;5058506;28;20038;-73
2022/07/05 07:11:24;;;;;;;6.75;1.90;;;;;;;;;;5060399;28;20038;-73
2022/07/05 07:13:50;;;;;;;5.95;2.20;;;;;;;;;;5059799;28;20029;-71
2022/07/05 07:16:16;;;;;;;4.75;1.80;;;;;;;;;;5058873;28;20049;-71
2022/07/05 07:18:42;;;;;;;5.38;2.00;;;;;;;;;;5059157;28;20046;-73
2022/07/05 07:21:08;;;;;;;5.65;1.80;;;;;;;;;;5057984;28;20850;-72
2022/07/05 07:23:35;;;;;;;5.05;2.17;;;;;;;;;;5055236;28;20084;-74
2022/07/05 07:26:01;;;;;;;5.90;2.20;;;;;;;;;;5057856;28;20041;-72
2022/07/05 07:28:28;;;;;;;6.00;2.03;;;;;;;;;;5055481;28;20048;-74
2022/07/05 07:30:54;;;;;;;5.10;1.80;;;;;;;;;;5054335;28;20041;-76
2022/07/05 07:33:20;;;;;;;4.57;1.80;;;;;;;;;;5055674;28;20089;-73
2022/07/05 07:35:46;;;;;;;5.75;2.20;;;;;;;;;;5058280;28;20028;-72
2022/07/05 07:38:12;;;;;;;6.57;1.90;;;;;;;;;;5056285;28;20029;-75
2022/07/05 07:40:38;;;;;;;4.30;1.80;;;;;;;;;;5058072;28;20025;-72
2022/07/05 07:43:04;;;;;;;3.95;1.90;;;;;;;;;;5053955;28;20085;-75
2022/07/05 07:45:31;;;;;;;6.95;2.00;;;;;;;;;;5056799;28;20101;-73
2022/07/05 07:47:57;;;;;;;4.82;2.00;;;;;;;;;;5057718;28;20037;-73
2022/07/05 07:50:23;;;;;;;6.20;2.10;;;;;;;;;;5057105;28;20052;-76
2022/07/05 07:52:49;;;;;;;6.00;1.98;;;;;;;;;;5059059;28;20057;-72
2022/07/05 07:55:15;;;;;;;6.18;2.00;;;;;;;;;;5059000;28;20060;-72
2022/07/05 07:57:41;;;;;;;7.20;2.08;;;;;;;;;;5041695;28;20037;-72
2022/07/05 08:00:08;;;;;;;4.47;1.67;;;;;;;;;;5058161;28;20029;-72
2022/07/05 08:02:34;;;;;;;6.28;1.83;;;;;;;;;;5057640;28;20041;-73
2022/07/05 08:05:01;;;;;;;4.70;1.67;;;;;;;;;;5057876;28;20055;-72
2022/07/05 08:07:28;;;;;;;4.55;2.03;;;;;;;;;;5059453;28;20040;-72
2022/07/05 08:09:54;;;;;;;5.85;1.95;;;;;;;;;;5059512;28;20083;-72
2022/07/05 08:12:20;;;;;;;6.22;1.92;;;;;;;;;;5058623;28;20021;-72
2022/07/05 08:14:46;;;;;;;3.88;2.10;;;;;;;;;;5056277;28;20081;-72
2022/07/05 08:17:16;;;;;;;4.15;1.70;;;;;;;;;;5049016;28;20040;-72
2022/07/05 08:22:29;;;;;;;6.40;2.05;;;;;;;;;;5039522;28;20037;-72
2022/07/05 08:24:56;;;;;;;5.88;1.88;;;;;;;;;;5058225;28;20045;-72
2022/07/05 08:27:22;;;;;;;6.05;2.15;;;;;;;;;;5057933;28;21068;-71
2022/07/05 08:29:48;;;;;;;5.22;2.28;;;;;;;;;;5056243;28;20029;-73
2022/07/05 08:32:14;;;;;;;6.43;2.08;;;;;;;;;;5058756;28;20049;-76
2022/07/05 08:34:40;;;;;;;4.10;1.92;;;;;;;;;;5058372;28;20033;-71
2022/07/05 08:37:06;;;;;;;6.72;2.40;;;;;;;;;;5058821;28;20085;-74
2022/07/05 08:39:33;;;;;;;5.25;2.20;;;;;;;;;;5058748;28;20049;-74
2022/07/05 08:41:59;;;;;;;5.45;1.98;;;;;;;;;;5056920;28;20037;-75
2022/07/05 08:44:27;;;;;;;5.00;2.30;;;;;;;;;;5057123;28;20033;-72
2022/07/05 08:46:55;;;;;;;4.22;1.75;;;;;;;;;;5055376;28;20037;-74
2022/07/05 08:49:26;;;;;;;6.13;2.10;;;;;;;;;;5038714;28;20045;-75
2022/07/05 08:51:53;;;;;;;7.40;1.95;;;;;;;;;;5039426;28;20042;-77
2022/07/05 08:54:19;;;;;;;5.53;1.90;;;;;;;;;;5058252;28;20025;-76
2022/07/05 08:56:45;;;;;;;3.67;1.65;;;;;;;;;;5054345;28;20045;-76
2022/07/05 08:59:12;;;;;;;5.10;1.80;;;;;;;;;;5045938;28;20041;-76
2022/07/05 09:01:39;;;;;;;5.75;2.20;;;;;;;;;;5038751;28;20022;-76
2022/07/05 09:04:05;;;;;;;2.78;1.70;;;;;;;;;;5057586;28;20108;-76
2022/07/05 09:06:32;;;;;;;4.15;1.75;;;;;;;;;;5056766;28;20063;-77
2022/07/05 09:08:59;;;;;;;6.05;2.03;;;;;;;;;;5057383;28;20021;-76
2022/07/05 09:11:28;;;;;;;5.35;2.05;;;;;;;;;;5058243;28;20049;-76
2022/07/05 09:13:54;;;;;;;4.43;1.60;;;;;;;;;;5059110;28;20025;-76
2022/07/05 09:16:20;;;;;;;4.43;1.70;;;;;;;;;;5058364;28;20086;-76
2022/07/05 09:18:54;;;;;;;4.20;1.85;;;;;;;;;;5057786;28;20033;-76
2022/07/05 09:21:20;;;;;;;2.38;1.70;;;;;;;;;;5058369;28;20041;-77
2022/07/05 09:23:54;;;;;;;4.63;1.90;;;;;;;;;;5057542;28;20046;-76
2022/07/05 09:26:21;;;;;;;6.38;2.25;;;;;;;;;;5057798;28;20033;-76
2022/07/05 09:28:54;;;;;;;5.70;1.90;;;;;;;;;;5037318;28;20046;-74
2022/07/05 09:31:28;;;;;;;6.00;1.95;;;;;;;;;;5047792;28;20049;-75
2022/07/05 09:33:54;;;;;;;4.88;2.00;;;;;;;;;;5052017;28;20033;-73
2022/07/05 09:36:20;;;;;;;2.97;1.83;;;;;;;;;;5056237;28;20048;-74
2022/07/05 09:38:52;;;;;;;2.60;1.60;;;;;;;;;;5056424;28;20033;-71
2022/07/05 09:41:18;;;;;;;6.15;2.35;;;;;;;;;;5044799;28;20136;-71
2022/07/05 09:43:44;;;;;;;4.50;1.85;;;;;;;;;;5051503;28;20037;-72
2022/07/05 09:46:10;;;;;;;6.13;2.10;;;;;;;;;;5045682;28;20049;-71
2022/07/05 09:48:36;;;;;;;5.18;1.88;;;;;;;;;;5048255;28;20064;-72
2022/07/05 09:51:09;;;;;;;8.52;2.20;;;;;;;;;;5043492;28;20076;-71
2022/07/05 09:54:04;;;;;;;5.90;2.00;;;;;;;;;;5048048;28;20044;-71
2022/07/05 09:56:43;;;;;;;6.20;1.88;;;;;;;;;;5026250;28;20057;-71
2022/07/05 09:59:18;;;;;;;4.18;1.85;;;;;;;;;;5047613;28;20069;-72
2022/07/05 10:01:44;;;;;;;4.20;1.80;;;;;;;;;;5047740;28;20049;-72
2022/07/05 10:04:10;;;;;;;5.88;1.98;;;;;;;;;;5050073;28;20577;-72
2022/07/05 10:06:36;;;;;;;4.32;1.80;;;;;;;;;;5049695;28;20073;-72
2022/07/05 10:09:02;;;;;;;3.50;1.73;;;;;;;;;;5045759;28;20052;-72
2022/07/05 10:11:28;;;;;;;3.63;1.70;;;;;;;;;;5043225;28;20063;-72
2022/07/05 10:13:54;;;;;;;4.00;1.73;;;;;;;;;;5023637;28;20042;-72
2022/07/05 10:16:22;;;;;;;3.33;1.60;;;;;;;;;;5040648;28;20080;-72
2022/07/05 10:18:52;;;;;;;6.00;2.03;;;;;;;;;;5055308;28;20045;-72
2022/07/05 10:21:18;;;;;;;3.50;1.58;;;;;;;;;;5052518;28;20056;-73
2022/07/05 10:23:51;;;;;;;4.15;1.40;;;;;;;;;;5051621;28;20097;-73
2022/07/05 10:26:17;;;;;;;2.80;1.70;;;;;;;;;;5051938;28;20056;-77
2022/07/05 10:28:47;;;;;;;3.90;1.50;;;;;;;;;;5061445;28;20025;-76
2022/07/05 10:31:15;;;;;;;3.53;1.77;;;;;;;;;;5059973;28;20089;-77
2022/07/05 10:33:41;;;;;;;5.05;1.70;;;;;;;;;;5058168;28;20105;-77
2022/07/05 10:36:10;;;;;;;2.30;1.60;;;;;;;;;;5061252;28;20052;-76
2022/07/05 10:38:38;;;;;;;3.38;1.75;;;;;;;;;;5060332;28;20049;-77
2022/07/05 10:41:07;;;;;;;4.03;1.80;;;;;;;;;;5060458;28;20052;-77
2022/07/05 10:43:33;;;;;;;5.07;1.90;;;;;;;;;;5061021;28;20052;-77
2022/07/05 10:46:00;;;;;;;5.43;1.90;;;;;;;;;;5059703;28;20037;-77
2022/07/05 10:48:26;;;;;;;5.22;1.90;;;;;;;;;;5060925;28;20112;-77
2022/07/05 10:50:57;;;;;;;5.70;2.30;;;;;;;;;;5059614;28;20053;-77
2022/07/05 10:53:31;;;;;;;5.90;1.92;;;;;;;;;;5060760;28;20049;-77
2022/07/05 10:56:06;;;;;;;4.18;1.80;;;;;;;;;;5060802;28;20029;-77
2022/07/05 10:58:33;;;;;;;5.45;1.95;;;;;;;;;;5060281;28;20041;-77
2022/07/05 11:01:18;;;;;;;4.40;1.88;;;;;;;;;;5059234;28;20021;-77
2022/07/05 11:03:48;;;;;;;4.82;2.08;;;;;;;;;;5058556;28;20112;-77
2022/07/05 11:06:21;;;;;;;6.00;2.10;;;;;;;;;;5060693;28;20026;-77
2022/07/05 11:09:10;;;;;;;4.25;2.10;;;;;;;;;;5060445;28;20037;-77
2022/07/05 11:11:36;;;;;;;5.68;1.98;;;;;;;;;;5060471;28;20036;-77
2022/07/05 11:14:03;;;;;;;6.85;2.28;;;;;;;;;;5058319;28;20069;-77
2022/07/05 11:16:36;;;;;;;4.68;2.20;;;;;;;;;;5059865;28;20021;-77
2022/07/05 11:19:05;;;;;;;4.57;1.90;;;;;;;;;;5051905;28;20127;-81
2022/07/05 11:21:31;;;;;;;6.00;2.20;;;;;;;;;;5058795;28;20039;-78
2022/07/05 11:24:16;;;;;;;5.90;2.10;;;;;;;;;;5060333;28;20033;-76
2022/07/05 11:26:42;;;;;;;5.70;2.28;;;;;;;;;;5060202;28;20030;-76
2022/07/05 11:29:28;;;;;;;4.72;1.90;;;;;;;;;;5060255;28;20036;-77
2022/07/05 11:32:07;;;;;;;5.55;2.40;;;;;;;;;;5059337;28;20045;-76
2022/07/05 11:34:34;;;;;;;5.50;2.00;;;;;;;;;;5059716;28;20131;-77
2022/07/05 11:37:34;;;;;;;9.63;2.10;;;;;;;;;;5060053;28;20089;-77
2022/07/05 11:40:06;;;;;;;6.93;1.98;;;;;;;;;;5060023;28;20037;-76
2022/07/05 11:42:37;;;;;;;5.57;2.08;;;;;;;;;;5059474;28;20029;-77
2022/07/05 11:45:04;;;;;;;5.30;1.90;;;;;;;;;;5059421;28;20037;-77
2022/07/05 11:47:31;;;;;;;3.63;2.10;;;;;;;;;;5058818;28;20041;-77
2022/07/05 11:49:57;;;;;;;6.07;2.25;;;;;;;;;;5059583;28;20061;-76
2022/07/05 11:52:27;;;;;;;6.00;2.30;;;;;;;;;;5059291;28;20037;-77
2022/07/05 11:54:54;;;;;;;3.40;1.92;;;;;;;;;;5059673;28;20037;-77
2022/07/05 11:57:20;;;;;;;5.32;2.22;;;;;;;;;;5059382;28;20025;-77
2022/07/05 11:59:47;;;;;;;4.68;2.13;;;;;;;;;;5058445;28;20029;-77
2022/07/05 12:02:13;;;;;;;3.55;1.90;;;;;;;;;;5058276;28;20060;-77
2022/07/05 12:04:39;;;;;;;7.07;1.98;;;;;;;;;;5039051;28;20073;-76
2022/07/05 12:07:05;;;;;;;4.68;1.83;;;;;;;;;;5039176;28;20030;-76
2022/07/05 12:15:03;;;;;;;5.70;2.00;;;;;;;;;;5052582;28;19921;-77
2022/07/05 12:17:29;;;;;;;4.38;1.90;;;;;;;;;;5058077;28;20089;-77
2022/07/05 12:19:55;;;;;;;4.90;2.10;;;;;;;;;;5059269;28;20032;-76
2022/07/05 12:22:30;;;;;;;4.15;1.88;;;;;;;;;;5059149;28;20029;-76
2022/07/05 12:24:58;;;;;;;4.53;1.90;;;;;;;;;;5058996;28;20029;-76
2022/07/05 12:27:24;;;;;;;6.47;1.92;;;;;;;;;;5058646;28;20056;-77
2022/07/05 12:29:50;;;;;;;3.80;1.83;;;;;;;;;;5058232;28;20017;-77
2022/07/05 12:32:16;;;;;;;4.68;2.00;;;;;;;;;;5057818;28;20037;-77
2022/07/05 12:34:42;;;;;;;4.75;2.00;;;;;;;;;;5058487;28;20056;-77
2022/07/05 12:37:08;;;;;;;3.63;2.03;;;;;;;;;;5041901;28;20064;-76
2022/07/05 12:39:34;;;;;;;3.70;1.98;;;;;;;;;;5058272;28;20097;-77
2022/07/05 12:42:00;;;;;;;6.22;1.95;;;;;;;;;;5058050;28;20077;-77
2022/07/05 12:44:26;;;;;;;5.30;1.90;;;;;;;;;;5058737;28;20037;-77
2022/07/05 12:47:04;;;;;;;3.70;2.05;;;;;;;;;;5057241;28;20033;-77
2022/07/05 12:49:30;;;;;;;4.55;1.98;;;;;;;;;;5057496;28;20061;-74
2022/07/05 12:52:04;;;;;;;4.07;1.98;;;;;;;;;;5049788;28;20115;-76
2022/07/05 13:00:02;;;;;;;3.95;1.98;;;;;;;;;;5057697;28;20030;-76
2022/07/05 13:02:38;;;;;;;3.30;2.15;;;;;;;;;;5057622;28;20044;-77
2022/07/05 13:05:05;;;;;;;4.30;1.88;;;;;;;;;;5058382;28;20028;-76
2022/07/05 13:07:31;;;;;;;4.57;2.00;;;;;;;;;;5057952;28;20029;-76
2022/07/05 13:10:13;;;;;;;4.20;2.08;;;;;;;;;;5053203;28;20049;-72
2022/07/05 13:12:39;;;;;;;5.20;2.20;;;;;;;;;;5054601;28;20049;-72
2022/07/05 13:15:05;;;;;;;3.38;1.70;;;;;;;;;;5053443;28;20081;-73
2022/07/05 13:17:31;;;;;;;4.22;1.92;;;;;;;;;;5054032;28;20068;-71
2022/07/05 13:19:59;;;;;;;3.78;1.73;;;;;;;;;;5052369;28;20049;-72
2022/07/05 13:22:25;;;;;;;5.25;1.90;;;;;;;;;;5049390;28;20031;-71
2022/07/05 13:24:52;;;;;;;5.72;2.10;;;;;;;;;;5048375;28;20097;-72
2022/07/05 13:27:18;;;;;;;3.83;1.83;;;;;;;;;;5048524;28;20073;-71
2022/07/05 13:29:44;;;;;;;5.43;1.90;;;;;;;;;;5047889;28;20164;-73
2022/07/05 13:32:10;;;;;;;5.65;1.90;;;;;;;;;;5047508;28;20050;-74
2022/07/05 13:34:36;;;;;;;2.58;1.52;;;;;;;;;;5051846;28;20069;-74
2022/07/05 13:37:03;;;;;;;2.83;1.70;;;;;;;;;;5043759;28;20147;-70
2022/07/05 13:39:29;;;;;;;4.18;1.80;;;;;;;;;;5051747;28;20037;-73
2022/07/05 13:41:56;;;;;;;3.35;1.70;;;;;;;;;;5036454;28;20023;-72
2022/07/05 13:44:22;;;;;;;6.00;1.80;;;;;;;;;;5056829;28;20033;-72
2022/07/05 13:46:49;;;;;;;3.97;1.85;;;;;;;;;;5056595;28;20036;-72
2022/07/05 13:49:15;;;;;;;4.07;1.80;;;;;;;;;;5059830;28;20030;-71
2022/07/05 13:51:41;;;;;;;3.58;2.00;;;;;;;;;;5057839;28;20029;-73
2022/07/05 13:54:07;;;;;;;2.92;1.90;;;;;;;;;;5057832;28;20025;-74
2022/07/05 13:56:35;;;;;;;5.53;1.98;;;;;;;;;;5056698;28;20037;-74
2022/07/05 13:59:01;;;;;;;4.25;1.88;;;;;;;;;;5039931;28;20025;-75
2022/07/05 14:01:28;;;;;;;4.85;2.10;;;;;;;;;;5054823;28;20040;-75
2022/07/05 14:03:56;;;;;;;5.20;1.92;;;;;;;;;;5054275;28;20033;-74
2022/07/05 14:06:22;;;;;;;5.03;2.00;;;;;;;;;;5041698;28;20116;-75
2022/07/05 14:08:48;;;;;;;4.85;1.90;;;;;;;;;;5040336;28;20564;-72
2022/07/05 14:11:14;;;;;;;5.95;2.05;;;;;;;;;;5043011;28;20097;-85
2022/07/05 14:13:41;;;;;;;5.35;2.10;;;;;;;;;;5049243;28;20038;-73
2022/07/05 14:16:07;;;;;;;5.30;2.03;;;;;;;;;;5057409;28;20033;-72
2022/07/05 14:18:33;;;;;;;2.38;1.65;;;;;;;;;;5055702;28;20049;-73
2022/07/05 14:20:59;;;;;;;3.83;1.77;;;;;;;;;;5057196;28;20022;-75
2022/07/05 14:23:25;;;;;;;2.97;1.63;;;;;;;;;;5060569;28;20044;-74
2022/07/05 14:25:51;;;;;;;3.35;1.73;;;;;;;;;;5060093;28;20101;-74
2022/07/05 14:28:17;;;;;;;3.17;1.92;;;;;;;;;;5059704;28;20022;-73
2022/07/05 14:30:44;;;;;;;4.53;1.90;;;;;;;;;;5061730;28;20041;-73
2022/07/05 14:33:11;;;;;;;4.38;2.70;;;;;;;;;;5060710;28;20036;-73
2022/07/05 14:35:38;;;;;;;3.95;1.70;;;;;;;;;;5059961;28;20033;-73
2022/07/05 14:38:04;;;;;;;3.53;1.80;;;;;;;;;;5060761;28;20041;-72
2022/07/05 14:40:30;;;;;;;4.15;1.90;;;;;;;;;;5057998;28;20045;-73
2022/07/05 14:43:00;;;;;;;3.00;1.70;;;;;;;;;;5057845;28;20042;-74
2022/07/05 14:45:26;;;;;;;3.35;2.00;;;;;;;;;;5060034;28;20065;-74
2022/07/05 14:47:52;;;;;;;4.10;1.92;;;;;;;;;;5057383;28;20041;-72
2022/07/05 14:50:19;;;;;;;3.85;1.60;;;;;;;;;;5059689;28;20068;-72
2022/07/05 14:52:46;;;;;;;3.58;1.52;;;;;;;;;;5060638;28;20101;-73
2022/07/05 14:55:12;;;;;;;5.03;1.60;;;;;;;;;;5052980;28;20034;-74
2022/07/05 14:57:38;;;;;;;4.03;1.65;;;;;;;;;;5057717;28;20033;-72
2022/07/05 15:00:07;;;;;;;5.18;1.90;;;;;;;;;;5060026;28;20025;-71
2022/07/05 15:02:33;;;;;;;3.72;1.75;;;;;;;;;;5058888;28;20030;-72